Time;durP1;ratioP1;P1;durP2;ratioP2;P2;SDS_P1;SDS_P2;PMS_P1;PMS_P2;Temp;Humidity;BMP_temperature;BMP_pressure;BME280_temperature;BME280_humidity;BME280_pressure;Samples;Min_cycle;Max_cycle;Signal;HPM_P1;HPM_P2
2023/06/03 00:02:10;;;;;;;20.13;4.27;;;12.60;99.90;;;;;;5031428;28;20174;-65
2023/06/03 00:04:41;;;;;;;17.98;3.65;;;12.60;99.90;;;;;;5031031;28;20170;-65
2023/06/03 00:07:07;;;;;;;14.83;3.43;;;12.60;99.90;;;;;;5031140;28;20642;-65
2023/06/03 00:09:33;;;;;;;20.83;3.63;;;12.60;99.90;;;;;;5030886;28;20292;-66
2023/06/03 00:11:59;;;;;;;14.43;3.10;;;12.50;99.90;;;;;;5030879;28;20652;-67
2023/06/03 00:14:25;;;;;;;19.40;3.73;;;12.40;99.90;;;;;;5028666;28;20178;-65
2023/06/03 00:16:51;;;;;;;19.48;3.65;;;12.40;99.90;;;;;;5030961;28;20197;-65
2023/06/03 00:19:17;;;;;;;16.02;3.65;;;12.30;99.90;;;;;;5030842;28;20170;-65
2023/06/03 00:21:49;;;;;;;23.05;3.60;;;12.30;99.90;;;;;;5031026;28;20257;-66
2023/06/03 00:24:22;;;;;;;18.20;3.53;;;12.30;99.90;;;;;;5030852;28;20682;-65
2023/06/03 00:26:49;;;;;;;20.73;3.63;;;12.20;99.90;;;;;;5030959;28;20173;-66
2023/06/03 00:29:15;;;;;;;22.23;3.63;;;12.20;99.90;;;;;;5030883;28;20677;-66
2023/06/03 00:31:40;;;;;;;21.03;3.60;;;12.20;99.90;;;;;;5030905;28;20174;-65
2023/06/03 00:34:06;;;;;;;16.73;3.33;;;12.10;99.90;;;;;;5030673;28;20221;-65
2023/06/03 00:36:32;;;;;;;19.40;4.10;;;12.20;99.90;;;;;;5030796;28;20162;-62
2023/06/03 00:38:57;;;;;;;21.97;3.67;;;12.10;99.90;;;;;;5025080;28;20185;-62
2023/06/03 00:41:23;;;;;;;16.80;3.40;;;12.00;99.90;;;;;;5005428;28;20180;-62
2023/06/03 00:43:49;;;;;;;17.97;3.43;;;12.00;99.90;;;;;;5027889;28;20269;-62
2023/06/03 00:46:19;;;;;;;23.63;3.67;;;11.90;99.90;;;;;;5015066;28;20257;-62
2023/06/03 00:48:44;;;;;;;11.77;3.33;;;12.00;99.90;;;;;;5017990;28;20206;-62
2023/06/03 00:51:10;;;;;;;16.17;3.80;;;11.90;99.90;;;;;;5021479;28;20193;-62
2023/06/03 00:53:36;;;;;;;23.23;4.10;;;11.90;99.90;;;;;;5012368;28;20574;-62
2023/06/03 00:56:02;;;;;;;21.57;3.67;;;11.90;99.90;;;;;;5030496;28;20170;-62
2023/06/03 00:58:28;;;;;;;20.80;4.10;;;11.90;99.90;;;;;;5030422;28;20162;-61
2023/06/03 01:00:53;;;;;;;16.50;4.07;;;11.90;99.90;;;;;;5030524;28;20174;-63
2023/06/03 01:03:20;;;;;;;18.53;3.50;;;11.90;99.90;;;;;;5030490;28;20654;-63
2023/06/03 01:06:14;;;;;;;14.47;3.10;;;11.90;99.90;;;;;;5030396;28;20224;-63
2023/06/03 01:09:02;;;;;;;21.60;3.87;;;11.90;99.90;;;;;;5018211;28;20213;-63
2023/06/03 01:11:47;;;;;;;20.47;3.83;;;11.80;99.90;;;;;;5030380;28;20186;-62
2023/06/03 01:14:24;;;;;;;13.83;3.27;;;11.80;99.90;;;;;;5030444;28;20653;-63
2023/06/03 01:16:52;;;;;;;18.03;3.83;;;11.70;99.90;;;;;;5030893;28;20184;-64
2023/06/03 01:19:48;;;;;;;16.17;3.83;;;11.70;99.90;;;;;;5030497;28;20170;-64
2023/06/03 01:22:20;;;;;;;21.50;3.90;;;11.70;99.90;;;;;;5023612;28;20881;-64
2023/06/03 01:24:53;;;;;;;26.03;3.33;;;11.70;99.90;;;;;;5030388;28;20178;-64
2023/06/03 01:27:20;;;;;;;29.53;4.07;;;11.70;99.90;;;;;;5030271;28;20178;-65
2023/06/03 01:29:47;;;;;;;19.70;3.63;;;11.80;99.90;;;;;;5012574;28;20240;-64
2023/06/03 01:32:16;;;;;;;28.23;4.00;;;11.60;99.90;;;;;;5032452;28;20210;-64
2023/06/03 01:34:42;;;;;;;12.97;3.33;;;11.60;99.90;;;;;;5033822;28;21277;-63
2023/06/03 01:37:12;;;;;;;17.60;3.97;;;11.60;99.90;;;;;;5033732;28;20170;-63
2023/06/03 01:39:41;;;;;;;18.03;3.63;;;11.60;99.90;;;;;;5033745;28;20169;-63
2023/06/03 01:42:09;;;;;;;16.70;3.43;;;11.60;99.90;;;;;;5033706;28;20253;-63
2023/06/03 01:44:35;;;;;;;15.50;3.63;;;11.50;99.90;;;;;;5033867;28;20209;-63
2023/06/03 01:47:01;;;;;;;14.50;3.73;;;11.50;99.90;;;;;;5033440;28;20206;-63
2023/06/03 01:49:31;;;;;;;20.97;3.93;;;11.30;99.90;;;;;;5033306;28;20209;-62
2023/06/03 01:52:00;;;;;;;19.27;3.90;;;11.40;99.90;;;;;;5027824;28;20240;-63
2023/06/03 01:54:26;;;;;;;17.47;3.80;;;11.30;99.90;;;;;;5019545;28;20185;-64
2023/06/03 01:56:56;;;;;;;16.93;4.00;;;11.30;99.90;;;;;;5015525;28;20667;-65
2023/06/03 01:59:23;;;;;;;21.23;4.27;;;11.30;99.90;;;;;;5024785;28;20182;-64
2023/06/03 02:01:57;;;;;;;17.60;3.70;;;11.30;99.90;;;;;;5013530;28;20170;-62
2023/06/03 02:04:23;;;;;;;15.97;3.90;;;11.30;99.90;;;;;;5013521;28;20634;-62
2023/06/03 02:06:50;;;;;;;17.90;3.33;;;11.20;99.90;;;;;;5013881;28;20205;-63
2023/06/03 02:09:16;;;;;;;24.43;4.50;;;11.30;99.90;;;;;;5013428;28;20772;-63
2023/06/03 02:11:45;;;;;;;16.67;4.30;;;11.20;99.90;;;;;;5020908;28;20178;-63
2023/06/03 02:14:11;;;;;;;20.87;4.30;;;11.10;99.90;;;;;;5032817;28;20231;-62
2023/06/03 02:16:37;;;;;;;19.43;3.33;;;11.10;99.90;;;;;;5033064;28;20637;-62
2023/06/03 02:19:19;;;;;;;22.70;4.23;;;11.10;99.90;;;;;;5032700;28;20190;-61
2023/06/03 02:21:46;;;;;;;20.03;4.07;;;11.00;99.90;;;;;;5032990;28;20649;-62
2023/06/03 02:24:16;;;;;;;22.30;4.10;;;11.00;99.90;;;;;;4998921;28;20612;-62
2023/06/03 02:26:49;;;;;;;23.47;4.30;;;11.00;99.90;;;;;;5032720;28;20224;-62
2023/06/03 02:29:19;;;;;;;28.83;4.90;;;11.00;99.90;;;;;;5032616;28;20673;-62
2023/06/03 02:31:48;;;;;;;22.03;4.50;;;10.90;99.90;;;;;;5032363;28;20186;-62
2023/06/03 02:34:14;;;;;;;21.07;4.40;;;10.90;99.90;;;;;;5032467;28;20556;-62
2023/06/03 02:36:40;;;;;;;24.27;4.60;;;10.90;99.90;;;;;;5032602;28;20216;-62
2023/06/03 02:39:07;;;;;;;19.57;4.27;;;10.90;99.90;;;;;;5032695;28;20182;-62
2023/06/03 02:41:33;;;;;;;18.63;4.20;;;10.90;99.90;;;;;;5032663;28;20161;-62
2023/06/03 02:43:59;;;;;;;22.07;4.10;;;10.90;99.90;;;;;;5031521;28;20170;-62
2023/06/03 02:46:24;;;;;;;18.03;3.57;;;10.80;99.90;;;;;;5014710;28;20219;-62
2023/06/03 02:48:50;;;;;;;22.93;4.40;;;10.90;99.90;;;;;;5032274;28;20206;-62
2023/06/03 02:51:15;;;;;;;17.37;4.17;;;11.00;99.90;;;;;;5014843;28;20182;-62
2023/06/03 02:53:41;;;;;;;21.33;4.03;;;10.80;99.90;;;;;;5032427;28;20178;-62
2023/06/03 02:56:06;;;;;;;16.60;3.93;;;10.80;99.90;;;;;;5032370;28;20174;-62
2023/06/03 02:58:32;;;;;;;19.33;4.30;;;10.80;99.90;;;;;;5028621;28;20173;-62
2023/06/03 03:00:58;;;;;;;13.57;4.13;;;10.80;99.90;;;;;;5018710;28;20174;-62
2023/06/03 03:03:25;;;;;;;21.77;4.50;;;10.80;99.90;;;;;;5031586;28;20170;-62
2023/06/03 03:05:51;;;;;;;15.00;4.17;;;10.70;99.90;;;;;;5021292;28;20183;-63
2023/06/03 03:08:17;;;;;;;20.73;4.20;;;10.80;99.90;;;;;;5028457;28;20220;-61
2023/06/03 03:10:43;;;;;;;16.80;3.87;;;10.80;99.90;;;;;;5012372;28;20663;-62
2023/06/03 03:13:08;;;;;;;20.10;4.70;;;10.70;99.90;;;;;;5017100;28;20622;-62
2023/06/03 03:15:34;;;;;;;25.67;4.43;;;10.70;99.90;;;;;;5031087;28;20237;-62
2023/06/03 03:18:00;;;;;;;23.30;4.20;;;10.80;99.90;;;;;;5023496;28;20170;-62
2023/06/03 03:20:28;;;;;;;18.90;3.97;;;10.70;99.90;;;;;;5027301;28;20178;-62
2023/06/03 03:22:54;;;;;;;21.63;4.47;;;10.60;99.90;;;;;;5029276;28;20177;-62
2023/06/03 03:25:21;;;;;;;20.47;4.27;;;10.60;99.90;;;;;;5012084;28;20174;-62
2023/06/03 03:27:46;;;;;;;25.47;4.37;;;10.60;99.90;;;;;;5012113;28;20611;-61
2023/06/03 03:30:12;;;;;;;21.27;3.90;;;10.60;99.90;;;;;;5011912;28;20305;-61
2023/06/03 03:32:38;;;;;;;20.17;5.67;;;10.50;99.90;;;;;;5011780;28;20590;-61
2023/06/03 03:35:14;;;;;;;16.67;3.97;;;10.50;99.90;;;;;;5014032;28;20174;-61
2023/06/03 03:37:41;;;;;;;19.07;4.30;;;10.50;99.90;;;;;;5031563;28;20177;-62
2023/06/03 03:40:17;;;;;;;23.70;4.07;;;10.60;99.90;;;;;;5013813;28;20174;-62
2023/06/03 03:42:50;;;;;;;17.57;3.93;;;10.60;99.90;;;;;;5031689;28;20174;-62
2023/06/03 03:45:18;;;;;;;25.17;4.37;;;12.20;99.90;;;;;;5031377;28;20169;-62
2023/06/03 03:47:45;;;;;;;23.60;3.80;;;10.50;99.90;;;;;;5031446;28;20584;-63
2023/06/03 03:50:34;;;;;;;16.57;4.43;;;10.50;99.90;;;;;;5031396;28;20514;-63
2023/06/03 03:53:03;;;;;;;25.17;4.80;;;10.50;99.90;;;;;;5031263;28;20170;-63
2023/06/03 03:55:29;;;;;;;16.83;4.60;;;10.50;99.90;;;;;;5031070;28;20630;-63
2023/06/03 03:57:55;;;;;;;21.27;4.33;;;10.60;99.90;;;;;;5031340;28;20172;-62
2023/06/03 04:00:21;;;;;;;18.03;4.30;;;10.70;99.90;;;;;;5031352;28;20170;-63
2023/06/03 04:02:49;;;;;;;21.93;4.63;;;10.60;99.90;;;;;;5031280;28;20178;-62
2023/06/03 04:05:16;;;;;;;20.00;4.53;;;10.60;99.90;;;;;;5013518;28;20272;-62
2023/06/03 04:07:46;;;;;;;23.37;4.40;;;10.70;99.90;;;;;;5030769;28;20166;-63
2023/06/03 04:10:12;;;;;;;23.23;4.67;;;10.70;99.90;;;;;;5030026;28;20267;-62
2023/06/03 04:12:38;;;;;;;15.53;4.53;;;10.70;99.90;;;;;;5027522;28;20198;-62
2023/06/03 04:15:04;;;;;;;24.03;4.23;;;10.70;99.90;;;;;;5011292;28;20221;-63
2023/06/03 04:17:30;;;;;;;18.77;4.10;;;10.70;99.90;;;;;;5021634;28;20218;-63
2023/06/03 04:19:57;;;;;;;15.93;4.23;;;10.80;99.90;;;;;;5017630;28;20568;-63
2023/06/03 04:22:24;;;;;;;25.70;4.90;;;10.80;99.90;;;;;;5011219;28;20167;-62
2023/06/03 04:24:56;;;;;;;16.27;4.40;;;10.80;99.90;;;;;;5011149;28;20166;-63
2023/06/03 04:27:22;;;;;;;19.47;5.17;;;10.80;99.90;;;;;;5011179;28;20642;-63
2023/06/03 04:29:48;;;;;;;21.83;4.40;;;10.80;99.90;;;;;;5018021;28;20616;-63
2023/06/03 04:32:14;;;;;;;18.17;4.03;;;10.90;99.90;;;;;;5030784;28;20208;-64
2023/06/03 04:34:53;;;;;;;20.13;4.27;;;10.80;99.90;;;;;;5024015;28;20213;-62
2023/06/03 04:37:20;;;;;;;20.63;4.10;;;;;;;;;;5030696;28;20166;-63
2023/06/03 04:39:46;;;;;;;16.93;4.50;;;10.90;99.90;;;;;;5030622;28;20166;-63
2023/06/03 04:42:12;;;;;;;18.87;4.23;;;11.00;99.90;;;;;;5030760;28;20555;-63
2023/06/03 04:44:39;;;;;;;19.60;3.87;;;10.90;99.90;;;;;;5030739;28;20162;-63
2023/06/03 04:47:05;;;;;;;19.83;4.00;;;10.80;99.90;;;;;;5012915;28;20552;-62
2023/06/03 04:49:32;;;;;;;17.03;4.43;;;10.90;99.90;;;;;;5030551;28;20206;-61
2023/06/03 04:51:58;;;;;;;22.70;4.47;;;10.90;99.90;;;;;;5030673;28;20166;-61
2023/06/03 04:54:24;;;;;;;23.17;4.27;;;10.90;99.90;;;;;;5030668;28;20174;-60
2023/06/03 04:56:50;;;;;;;14.93;4.33;;;10.90;99.90;;;;;;5030706;28;20668;-61
2023/06/03 04:59:16;;;;;;;25.10;4.53;;;10.80;99.90;;;;;;5030647;28;20189;-61
2023/06/03 05:01:44;;;;;;;16.37;4.10;;;10.90;99.90;;;;;;5012716;28;20178;-61
2023/06/03 05:04:13;;;;;;;15.50;4.20;;;10.80;99.90;;;;;;5030900;28;20178;-61
2023/06/03 05:06:39;;;;;;;18.33;4.10;;;10.80;99.90;;;;;;5032139;28;20653;-61
2023/06/03 05:09:05;;;;;;;23.30;3.90;;;10.90;99.90;;;;;;5034247;28;20288;-61
2023/06/03 05:11:31;;;;;;;28.30;6.03;;;10.90;99.90;;;;;;5034221;28;20178;-61
2023/06/03 05:13:57;;;;;;;23.43;5.20;;;11.10;99.90;;;;;;5034171;28;20531;-61
2023/06/03 05:16:22;;;;;;;19.50;4.77;;;11.00;99.90;;;;;;5034168;28;20220;-61
2023/06/03 05:18:48;;;;;;;18.83;4.27;;;10.90;99.90;;;;;;5034108;28;20233;-61
2023/06/03 05:21:19;;;;;;;18.83;4.63;;;11.00;99.90;;;;;;5034139;28;20185;-61
2023/06/03 05:23:45;;;;;;;16.60;4.43;;;11.00;99.90;;;;;;5034187;28;20212;-61
2023/06/03 05:26:10;;;;;;;21.17;4.70;;;10.90;99.90;;;;;;5034059;28;20284;-62
2023/06/03 05:28:36;;;;;;;19.70;4.63;;;11.00;99.90;;;;;;5040082;28;20729;-61
2023/06/03 05:31:02;;;;;;;20.13;4.20;;;11.00;99.90;;;;;;5033857;28;20642;-61
2023/06/03 05:33:32;;;;;;;24.47;4.73;;;11.10;99.90;;;;;;5033666;28;20628;-62
2023/06/03 05:35:58;;;;;;;21.30;5.30;;;11.10;99.90;;;;;;5029355;28;20175;-62
2023/06/03 05:38:24;;;;;;;18.40;3.80;;;11.20;99.90;;;;;;5020881;28;20177;-62
2023/06/03 05:40:51;;;;;;;15.07;4.30;;;11.20;99.90;;;;;;5033309;28;20232;-62
2023/06/03 05:43:17;;;;;;;17.33;4.73;;;11.30;99.90;;;;;;5033294;28;20231;-61
2023/06/03 05:45:43;;;;;;;22.00;4.27;;;11.40;99.90;;;;;;5033722;28;20178;-61
2023/06/03 05:48:09;;;;;;;20.10;4.70;;;11.40;99.90;;;;;;5031824;28;20178;-61
2023/06/03 05:50:37;;;;;;;22.40;4.80;;;11.30;99.90;;;;;;5022179;28;20265;-60
2023/06/03 05:53:03;;;;;;;20.47;5.03;;;;;;;;;;5033522;28;20262;-59
2023/06/03 05:55:29;;;;;;;15.77;4.50;;;11.40;99.90;;;;;;5017604;28;20551;-60
2023/06/03 05:57:56;;;;;;;23.77;4.37;;;11.50;99.90;;;;;;5013603;28;20175;-61
2023/06/03 06:00:22;;;;;;;20.63;4.93;;;11.50;99.90;;;;;;5013647;28;20183;-60
2023/06/03 06:02:47;;;;;;;12.70;5.03;;;11.40;99.90;;;;;;5013599;28;20669;-60
2023/06/03 06:05:14;;;;;;;18.53;4.70;;;11.60;99.90;;;;;;5013516;28;20244;-61
2023/06/03 06:07:39;;;;;;;17.60;3.97;;;11.60;99.90;;;;;;5028926;28;20653;-61
2023/06/03 06:10:05;;;;;;;18.13;4.87;;;11.70;99.90;;;;;;5033184;28;20205;-61
2023/06/03 06:12:31;;;;;;;21.33;4.30;;;11.70;99.90;;;;;;5033172;28;20169;-64
2023/06/03 06:14:56;;;;;;;19.63;4.30;;;11.80;99.90;;;;;;5028373;28;20264;-61
2023/06/03 06:17:22;;;;;;;15.70;4.13;;;11.90;99.90;;;;;;5032731;28;20221;-61
2023/06/03 06:19:47;;;;;;;16.57;4.07;;;12.00;99.90;;;;;;5033143;28;20182;-60
2023/06/03 06:22:13;;;;;;;14.53;3.90;;;12.00;99.90;;;;;;5032918;28;20178;-60
2023/06/03 06:24:39;;;;;;;22.50;4.20;;;;;;;;;;5032944;28;20174;-60
2023/06/03 06:27:05;;;;;;;15.37;4.60;;;12.30;99.90;;;;;;5032716;28;20543;-61
2023/06/03 06:29:32;;;;;;;21.07;4.27;;;12.50;99.90;;;;;;5032614;28;20233;-61
2023/06/03 06:31:59;;;;;;;18.27;3.60;;;12.60;99.90;;;;;;5032700;28;20718;-60
2023/06/03 06:34:29;;;;;;;20.60;3.78;;;12.60;99.90;;;;;;5032774;28;20739;-60
2023/06/03 06:36:55;;;;;;;15.57;4.40;;;12.70;99.90;;;;;;5032791;28;20178;-60
2023/06/03 06:39:33;;;;;;;17.00;3.80;;;12.70;99.90;;;;;;5032621;28;20204;-61
2023/06/03 06:42:20;;;;;;;14.27;3.87;;;12.70;99.90;;;;;;5031449;28;20177;-61
2023/06/03 06:44:49;;;;;;;12.90;3.57;;;12.70;99.90;;;;;;5031210;28;20228;-60
2023/06/03 06:47:24;;;;;;;17.67;3.80;;;12.80;99.90;;;;;;5014865;28;20229;-60
2023/06/03 06:49:50;;;;;;;12.02;3.63;;;12.80;99.90;;;;;;5012484;28;20684;-60
2023/06/03 06:52:16;;;;;;;18.95;4.18;;;12.90;99.90;;;;;;5026617;28;20412;-60
2023/06/03 06:54:42;;;;;;;17.38;4.07;;;13.00;99.90;;;;;;5031080;28;20203;-64
2023/06/03 06:57:07;;;;;;;15.38;3.75;;;13.00;99.90;;;;;;5025524;28;20685;-66
2023/06/03 06:59:33;;;;;;;17.88;3.97;;;13.10;99.90;;;;;;5012427;28;20209;-67
2023/06/03 07:01:59;;;;;;;16.55;3.63;;;13.10;99.90;;;;;;5025654;28;20268;-67
2023/06/03 07:04:25;;;;;;;15.32;4.05;;;13.20;99.90;;;;;;5031899;28;20170;-66
2023/06/03 07:06:51;;;;;;;15.57;3.77;;;14.10;99.90;;;;;;5032130;28;20297;-66
2023/06/03 07:09:16;;;;;;;14.48;3.88;;;13.10;99.90;;;;;;5013438;28;20206;-66
2023/06/03 07:11:46;;;;;;;13.45;3.72;;;13.20;99.90;;;;;;5032088;28;20245;-66
2023/06/03 07:14:13;;;;;;;14.45;3.83;;;13.20;99.90;;;;;;5030477;28;20184;-67
2023/06/03 07:16:41;;;;;;;13.38;3.53;;;13.30;99.90;;;;;;5031929;28;20174;-66
2023/06/03 07:19:07;;;;;;;12.48;3.70;;;13.60;99.90;;;;;;5014259;28;20209;-66
2023/06/03 07:21:35;;;;;;;18.85;4.53;;;13.60;99.90;;;;;;5012383;28;20607;-66
2023/06/03 07:24:01;;;;;;;20.80;4.43;;;13.50;99.90;;;;;;5016833;28;20186;-66
2023/06/03 07:26:27;;;;;;;14.65;3.58;;;13.40;99.90;;;;;;5012100;28;20185;-66
2023/06/03 07:28:57;;;;;;;16.08;3.67;;;13.50;99.90;;;;;;5011302;28;20199;-65
2023/06/03 07:31:23;;;;;;;17.30;3.80;;;13.70;99.90;;;;;;5012054;28;20221;-65
2023/06/03 07:33:50;;;;;;;20.98;4.47;;;13.50;99.90;;;;;;5022135;28;20355;-66
2023/06/03 07:36:18;;;;;;;12.95;3.28;;;13.60;99.90;;;;;;5031774;28;20188;-67
2023/06/03 07:38:50;;;;;;;15.68;3.83;;;13.70;99.90;;;;;;5030232;28;20216;-66
2023/06/03 07:41:30;;;;;;;14.02;3.55;;;13.60;99.90;;;;;;5028444;28;20264;-68
2023/06/03 07:43:57;;;;;;;15.02;3.75;;;13.90;99.90;;;;;;5031872;28;20166;-66
2023/06/03 07:46:35;;;;;;;18.55;3.95;;;13.90;99.90;;;;;;5021900;28;20210;-67
2023/06/03 07:49:03;;;;;;;13.98;4.00;;;13.90;99.90;;;;;;5029950;28;20209;-67
2023/06/03 07:51:29;;;;;;;13.38;3.47;;;13.80;99.90;;;;;;5025885;28;20261;-66
2023/06/03 07:53:55;;;;;;;14.80;3.58;;;13.80;99.90;;;;;;5011628;28;20249;-67
2023/06/03 07:56:21;;;;;;;11.57;3.53;;;13.80;99.90;;;;;;5011385;28;20261;-66
2023/06/03 07:58:47;;;;;;;12.95;3.22;;;13.80;99.90;;;;;;5011288;28;20607;-66
2023/06/03 08:01:15;;;;;;;22.75;4.40;;;13.80;99.90;;;;;;5011549;28;20198;-66
2023/06/03 08:03:41;;;;;;;11.68;3.20;;;14.00;99.90;;;;;;5014200;28;20690;-67
2023/06/03 08:06:08;;;;;;;16.23;3.55;;;14.00;99.90;;;;;;5031228;28;20261;-66
2023/06/03 08:08:33;;;;;;;19.48;4.05;;;14.10;99.90;;;;;;5031046;28;20255;-65
2023/06/03 08:11:02;;;;;;;16.45;3.38;;;14.20;99.90;;;;;;5031132;28;20633;-65
2023/06/03 08:13:28;;;;;;;10.90;3.20;;;14.40;99.90;;;;;;5029887;28;20223;-65
2023/06/03 08:15:54;;;;;;;10.30;3.03;;;14.50;99.90;;;;;;5015956;28;20186;-65
2023/06/03 08:18:41;;;;;;;15.77;3.60;;;14.40;99.90;;;;;;5026393;28;20657;-68
2023/06/03 08:21:07;;;;;;;19.02;3.13;;;14.70;99.90;;;;;;5013363;28;20220;-64
2023/06/03 08:23:33;;;;;;;12.70;2.95;;;14.80;99.90;;;;;;5029372;28;20200;-65
2023/06/03 08:25:59;;;;;;;13.65;3.35;;;15.20;99.90;;;;;;5030612;28;20669;-64
2023/06/03 08:28:25;;;;;;;13.30;2.80;;;15.10;99.90;;;;;;5030303;28;20745;-64
2023/06/03 08:30:53;;;;;;;12.80;3.47;;;15.10;99.90;;;;;;5030693;28;20178;-64
2023/06/03 08:33:18;;;;;;;10.15;2.70;;;15.40;99.90;;;;;;5029630;28;20809;-65
2023/06/03 08:35:44;;;;;;;14.57;3.50;;;15.40;99.90;;;;;;5026742;28;20268;-63
2023/06/03 08:38:10;;;;;;;13.23;3.00;;;15.60;99.90;;;;;;5015606;28;20189;-63
2023/06/03 08:40:45;;;;;;;16.42;3.55;;;15.80;99.90;;;;;;5026023;28;20658;-64
2023/06/03 08:43:11;;;;;;;18.70;3.13;;;16.20;99.90;;;;;;5034658;28;20173;-63
2023/06/03 08:46:01;;;;;;;15.30;2.88;;;16.50;99.90;;;;;;5034608;28;20180;-63
2023/06/03 08:48:53;;;;;;;15.20;3.00;;;17.00;99.90;;;;;;5034635;28;20201;-63
2023/06/03 08:51:22;;;;;;;12.02;2.92;;;17.50;99.90;;;;;;5032915;28;20257;-63
2023/06/03 08:53:49;;;;;;;12.43;2.90;;;17.70;99.90;;;;;;5031031;28;20178;-63
2023/06/03 08:56:17;;;;;;;13.35;3.42;;;17.90;99.90;;;;;;5034133;28;20563;-62
2023/06/03 08:58:47;;;;;;;17.05;3.55;;;17.90;99.90;;;;;;5034420;28;20184;-62
2023/06/03 09:01:16;;;;;;;13.40;2.95;;;18.60;99.90;;;;;;5034193;28;20256;-65
2023/06/03 09:03:43;;;;;;;12.70;2.97;;;18.90;99.90;;;;;;5033943;28;20166;-64
2023/06/03 09:06:10;;;;;;;18.85;2.92;;;19.40;99.90;;;;;;5034585;28;20244;-64
2023/06/03 09:08:38;;;;;;;14.73;3.13;;;19.30;99.90;;;;;;5034126;28;20208;-64
2023/06/03 09:11:07;;;;;;;14.10;3.40;;;19.40;99.90;;;;;;5034205;28;20213;-65
2023/06/03 09:13:33;;;;;;;10.40;2.90;;;19.80;99.90;;;;;;5001201;28;20682;-64
2023/06/03 09:15:59;;;;;;;10.27;2.90;;;20.20;99.90;;;;;;5034170;28;20704;-64
2023/06/03 09:18:25;;;;;;;14.90;3.28;;;20.00;99.90;;;;;;5032387;28;20189;-64
2023/06/03 09:20:51;;;;;;;13.85;2.70;;;20.20;99.90;;;;;;5030226;28;20178;-64
2023/06/03 09:23:17;;;;;;;13.30;3.05;;;20.20;99.90;;;;;;5030998;28;20184;-64
2023/06/03 09:25:43;;;;;;;14.18;3.22;;;20.20;99.90;;;;;;5033863;28;20181;-64
2023/06/03 09:28:10;;;;;;;9.52;2.80;;;20.30;99.90;;;;;;5032179;28;20186;-64
2023/06/03 09:30:36;;;;;;;9.65;2.42;;;20.40;99.90;;;;;;5022696;28;20265;-65
2023/06/03 09:33:02;;;;;;;12.65;2.58;;;20.20;99.90;;;;;;5014510;28;20309;-64
2023/06/03 09:35:28;;;;;;;8.48;2.60;;;20.30;99.90;;;;;;5033587;28;20174;-65
2023/06/03 09:38:01;;;;;;;9.68;2.60;;;20.60;99.90;;;;;;5033361;28;20173;-66
2023/06/03 09:40:28;;;;;;;7.38;2.08;;;20.70;99.90;;;;;;5033216;28;20323;-67
2023/06/03 09:42:54;;;;;;;7.68;1.88;;;20.90;99.90;;;;;;5032607;28;20205;-66
2023/06/03 09:45:35;;;;;;;10.38;2.47;;;20.80;99.90;;;;;;5033627;28;20630;-66
2023/06/03 09:48:02;;;;;;;11.85;3.05;;;20.90;99.90;;;;;;5033673;28;20257;-66
2023/06/03 09:50:29;;;;;;;9.38;2.28;;;20.80;99.90;;;;;;5033350;28;20264;-65
2023/06/03 09:52:55;;;;;;;8.95;2.30;;;20.80;99.90;;;;;;5031189;28;20166;-66
2023/06/03 09:55:29;;;;;;;9.57;2.40;;;21.10;99.90;;;;;;5033235;28;20182;-65
2023/06/03 09:58:12;;;;;;;9.57;2.47;;;21.00;99.90;;;;;;5022842;28;20538;-64
2023/06/03 10:00:51;;;;;;;10.57;2.08;;;21.10;99.90;;;;;;5026513;28;20181;-65
2023/06/03 10:03:22;;;;;;;9.30;2.40;;;21.10;99.90;;;;;;5014259;28;20204;-65
2023/06/03 10:05:48;;;;;;;6.75;2.28;;;21.30;99.90;;;;;;5024438;28;20261;-65
2023/06/03 10:08:13;;;;;;;9.32;2.38;;;21.90;99.90;;;;;;5029754;28;20266;-68
2023/06/03 10:10:55;;;;;;;8.60;2.38;;;22.00;99.90;;;;;;5013159;28;20590;-66
2023/06/03 10:13:21;;;;;;;8.88;2.10;;;21.90;99.90;;;;;;5013159;28;20162;-65
2023/06/03 10:15:49;;;;;;;13.18;2.72;;;21.60;99.90;;;;;;5013267;28;20213;-65
2023/06/03 10:18:15;;;;;;;9.63;2.95;;;;;;;;;;5013205;28;20634;-65
2023/06/03 10:20:42;;;;;;;5.70;1.90;;;21.90;99.90;;;;;;5013162;28;20178;-65
2023/06/03 10:23:10;;;;;;;10.75;2.42;;;21.90;99.90;;;;;;5022197;28;20232;-64
2023/06/03 10:25:42;;;;;;;13.15;2.17;;;21.50;99.90;;;;;;5033062;28;20185;-65
2023/06/03 10:28:09;;;;;;;8.55;2.20;;;21.40;99.90;;;;;;5032685;28;20657;-65
2023/06/03 10:30:35;;;;;;;10.82;2.38;;;21.30;99.90;;;;;;5031054;28;20182;-64
2023/06/03 10:33:05;;;;;;;9.00;2.67;;;21.60;99.90;;;;;;5032258;28;20221;-64
2023/06/03 10:35:34;;;;;;;7.70;2.28;;;22.00;99.90;;;;;;5032882;28;20208;-65
2023/06/03 10:38:05;;;;;;;5.63;1.55;;;21.90;99.90;;;;;;5032700;28;20169;-66
2023/06/03 10:40:31;;;;;;;8.10;2.08;;;22.00;99.90;;;;;;5032684;28;20166;-66
2023/06/03 10:42:57;;;;;;;7.47;2.13;;;22.50;99.90;;;;;;5031896;28;20174;-65
2023/06/03 10:45:24;;;;;;;11.15;2.08;;;22.20;99.90;;;;;;5032429;28;20174;-65
2023/06/03 10:48:04;;;;;;;5.60;1.65;;;23.10;99.90;;;;;;5031955;28;20178;-65
2023/06/03 10:50:48;;;;;;;5.30;1.90;;;22.50;99.90;;;;;;5031702;28;20220;-66
2023/06/03 10:53:37;;;;;;;5.55;1.75;;;22.90;99.90;;;;;;5032191;28;20689;-65
2023/06/03 10:56:21;;;;;;;9.82;2.28;;;22.90;99.90;;;;;;5029503;28;20209;-65
2023/06/03 10:58:57;;;;;;;10.23;2.85;;;22.90;99.90;;;;;;5013832;28;20269;-65
2023/06/03 11:01:22;;;;;;;11.48;2.20;;;23.20;99.90;;;;;;5029133;28;20650;-66
2023/06/03 11:03:59;;;;;;;7.97;1.98;;;23.20;99.90;;;;;;5030639;28;20225;-66
2023/06/03 11:06:28;;;;;;;8.98;1.90;;;23.50;99.90;;;;;;5032268;28;20256;-65
2023/06/03 11:09:08;;;;;;;7.25;1.70;;;24.20;99.90;;;;;;5019518;28;20221;-65
2023/06/03 11:11:43;;;;;;;6.93;1.88;;;24.30;98.40;;;;;;5012440;28;20256;-65
2023/06/03 11:14:29;;;;;;;8.93;2.00;;;24.20;95.30;;;;;;5012235;28;20248;-66
2023/06/03 11:16:58;;;;;;;8.00;2.17;;;24.50;90.40;;;;;;5001402;28;20221;-66
2023/06/03 11:19:34;;;;;;;6.07;1.90;;;24.80;67.50;;;;;;5026974;28;20650;-65
2023/06/03 11:22:04;;;;;;;9.00;2.03;;;24.10;64.20;;;;;;5014168;28;20622;-66
2023/06/03 11:24:41;;;;;;;10.73;1.98;;;24.40;70.80;;;;;;5032109;28;20170;-66
2023/06/03 11:27:10;;;;;;;6.80;1.63;;;24.60;64.60;;;;;;5031094;28;20745;-66
2023/06/03 11:29:56;;;;;;;7.15;1.95;;;25.30;64.30;;;;;;5031147;28;20221;-66
2023/06/03 11:32:38;;;;;;;8.63;2.25;;;25.50;49.60;;;;;;5031549;28;20243;-65
2023/06/03 11:35:10;;;;;;;6.18;2.13;;;24.80;42.40;;;;;;5088734;27;20542;-65
2023/06/03 11:37:52;;;;;;;7.45;2.10;;;24.80;56.90;;;;;;5070494;28;20175;-66
2023/06/03 11:40:20;;;;;;;8.10;2.20;;;25.40;50.50;;;;;;5061696;28;20191;-66
2023/06/03 11:42:51;;;;;;;6.82;2.10;;;25.40;48.70;;;;;;5081450;28;20176;-65
2023/06/03 11:45:21;;;;;;;7.15;2.00;;;25.50;40.00;;;;;;5086360;28;20171;-65
2023/06/03 11:47:49;;;;;;;14.30;2.40;;;26.00;32.60;;;;;;5074149;28;20176;-66
2023/06/03 11:50:16;;;;;;;7.70;2.00;;;25.40;30.50;;;;;;5068105;28;20192;-65
2023/06/03 11:52:41;;;;;;;8.40;1.90;;;24.50;50.10;;;;;;5068137;28;20172;-66
2023/06/03 11:55:07;;;;;;;8.13;2.00;;;25.40;37.20;;;;;;5068123;28;20230;-64
2023/06/03 11:57:33;;;;;;;6.90;2.33;;;24.90;37.10;;;;;;5068273;28;20231;-66
2023/06/03 12:00:05;;;;;;;8.45;2.20;;;25.90;33.90;;;;;;5068052;28;20627;-67
2023/06/03 12:02:37;;;;;;;11.10;2.50;;;26.20;29.10;;;;;;5067659;28;20177;-66
2023/06/03 12:05:07;;;;;;;6.15;2.20;;;26.30;21.90;;;;;;5067647;28;20241;-66
2023/06/03 12:07:33;;;;;;;6.30;2.17;;;26.00;16.10;;;;;;5049767;28;20176;-65
2023/06/03 12:09:58;;;;;;;7.10;1.98;;;25.10;31.80;;;;;;5068011;28;20184;-65
2023/06/03 12:12:24;;;;;;;9.52;2.28;;;24.80;35.90;;;;;;5070239;28;20260;-66
2023/06/03 12:14:50;;;;;;;8.40;2.38;;;25.10;33.20;;;;;;5076139;28;20736;-66
2023/06/03 12:17:18;;;;;;;6.63;2.20;;;25.80;30.00;;;;;;5085707;28;20239;-65
2023/06/03 12:19:51;;;;;;;7.30;2.10;;;26.30;30.00;;;;;;5067403;28;20627;-65
2023/06/03 12:22:25;;;;;;;8.77;2.30;;;26.70;26.50;;;;;;5067653;28;20215;-65
2023/06/03 12:24:51;;;;;;;6.53;2.20;;;27.50;8.30;;;;;;5067679;28;20200;-65
2023/06/03 12:27:25;;;;;;;10.18;2.67;;;27.20;1.00;;;;;;5067789;28;20172;-66
2023/06/03 12:29:55;;;;;;;8.48;2.78;;;26.90;1.00;;;;;;5070932;28;20176;-65
2023/06/03 12:32:22;;;;;;;5.07;1.98;;;26.80;1.00;;;;;;5049423;28;20538;-65
2023/06/03 12:34:48;;;;;;;12.35;2.35;;;;;;;;;;5066896;28;20228;-65
2023/06/03 12:37:30;;;;;;;8.05;2.60;;;26.90;1.00;;;;;;5067279;28;20199;-65
2023/06/03 12:39:57;;;;;;;6.43;2.22;;;26.80;1.00;;;;;;5066930;28;20187;-66
2023/06/03 12:42:42;;;;;;;10.75;2.40;;;27.20;15.60;;;;;;5067052;28;20169;-65
2023/06/03 12:45:09;;;;;;;10.27;2.45;;;27.70;1.00;;;;;;5061568;28;20176;-65
2023/06/03 12:47:46;;;;;;;10.93;2.22;;;27.70;1.00;;;;;;5057042;28;20188;-66
2023/06/03 12:50:13;;;;;;;6.20;2.17;;;27.70;1.00;;;;;;5067904;28;20171;-66